sensor_id;sensor_type;location;lat;lon;timestamp;P1;durP1;ratioP1;P2;durP2;ratioP2
41219;SDS011;26951;47.338;9.196;2023-03-23T00:01:21;2.15;;;1.83;;
41219;SDS011;26951;47.338;9.196;2023-03-23T00:04:05;3.70;;;1.58;;
41219;SDS011;26951;47.338;9.196;2023-03-23T00:06:50;2.83;;;1.52;;
41219;SDS011;26951;47.338;9.196;2023-03-23T00:09:34;5.07;;;2.10;;
41219;SDS011;26951;47.338;9.196;2023-03-23T00:12:25;1.80;;;1.55;;
41219;SDS011;26951;47.338;9.196;2023-03-23T00:15:17;1.75;;;1.55;;
41219;SDS011;26951;47.338;9.196;2023-03-23T00:18:01;1.50;;;1.30;;
41219;SDS011;26951;47.338;9.196;2023-03-23T00:20:55;1.50;;;1.30;;
41219;SDS011;26951;47.338;9.196;2023-03-23T00:23:40;4.75;;;1.83;;
41219;SDS011;26951;47.338;9.196;2023-03-23T00:26:24;1.67;;;1.52;;
41219;SDS011;26951;47.338;9.196;2023-03-23T00:29:13;2.20;;;1.50;;
41219;SDS011;26951;47.338;9.196;2023-03-23T00:32:02;2.85;;;1.02;;
41219;SDS011;26951;47.338;9.196;2023-03-23T00:34:46;1.75;;;1.40;;
41219;SDS011;26951;47.338;9.196;2023-03-23T00:37:32;1.77;;;1.48;;
41219;SDS011;26951;47.338;9.196;2023-03-23T00:43:02;1.90;;;1.60;;
41219;SDS011;26951;47.338;9.196;2023-03-23T00:45:47;3.35;;;1.67;;
41219;SDS011;26951;47.338;9.196;2023-03-23T00:48:36;2.55;;;1.30;;
41219;SDS011;26951;47.338;9.196;2023-03-23T00:51:27;1.75;;;1.40;;
41219;SDS011;26951;47.338;9.196;2023-03-23T00:54:11;1.85;;;1.30;;
41219;SDS011;26951;47.338;9.196;2023-03-23T00:56:56;1.38;;;1.23;;
41219;SDS011;26951;47.338;9.196;2023-03-23T00:59:40;3.00;;;1.35;;
41219;SDS011;26951;47.338;9.196;2023-03-23T01:02:24;2.17;;;1.55;;
41219;SDS011;26951;47.338;9.196;2023-03-23T01:05:08;1.98;;;1.40;;
41219;SDS011;26951;47.338;9.196;2023-03-23T01:07:53;2.90;;;1.90;;
41219;SDS011;26951;47.338;9.196;2023-03-23T01:10:37;2.47;;;1.30;;
41219;SDS011;26951;47.338;9.196;2023-03-23T01:13:22;1.92;;;1.58;;
41219;SDS011;26951;47.338;9.196;2023-03-23T01:16:06;1.83;;;1.45;;
41219;SDS011;26951;47.338;9.196;2023-03-23T01:18:50;2.08;;;1.40;;
41219;SDS011;26951;47.338;9.196;2023-03-23T01:21:35;1.88;;;1.35;;
41219;SDS011;26951;47.338;9.196;2023-03-23T01:24:19;1.75;;;1.48;;
41219;SDS011;26951;47.338;9.196;2023-03-23T01:27:04;1.77;;;1.27;;
41219;SDS011;26951;47.338;9.196;2023-03-23T01:29:50;2.22;;;1.60;;
41219;SDS011;26951;47.338;9.196;2023-03-23T01:32:35;1.83;;;1.52;;
41219;SDS011;26951;47.338;9.196;2023-03-23T01:35:19;1.50;;;1.40;;
41219;SDS011;26951;47.338;9.196;2023-03-23T01:38:04;2.20;;;1.52;;
41219;SDS011;26951;47.338;9.196;2023-03-23T01:40:48;2.80;;;1.55;;
41219;SDS011;26951;47.338;9.196;2023-03-23T01:43:32;3.00;;;1.70;;
41219;SDS011;26951;47.338;9.196;2023-03-23T01:46:17;2.00;;;1.80;;
41219;SDS011;26951;47.338;9.196;2023-03-23T01:49:03;2.00;;;1.42;;
41219;SDS011;26951;47.338;9.196;2023-03-23T01:51:57;1.73;;;1.23;;
41219;SDS011;26951;47.338;9.196;2023-03-23T01:54:55;2.00;;;1.45;;
41219;SDS011;26951;47.338;9.196;2023-03-23T01:57:41;3.22;;;1.73;;
41219;SDS011;26951;47.338;9.196;2023-03-23T02:00:25;2.15;;;1.55;;
41219;SDS011;26951;47.338;9.196;2023-03-23T02:03:10;2.92;;;1.50;;
41219;SDS011;26951;47.338;9.196;2023-03-23T02:05:59;1.98;;;1.58;;
41219;SDS011;26951;47.338;9.196;2023-03-23T02:08:43;1.70;;;1.40;;
41219;SDS011;26951;47.338;9.196;2023-03-23T02:11:29;2.13;;;1.77;;
41219;SDS011;26951;47.338;9.196;2023-03-23T02:14:13;1.67;;;1.50;;
41219;SDS011;26951;47.338;9.196;2023-03-23T02:25:58;2.30;;;1.70;;
41219;SDS011;26951;47.338;9.196;2023-03-23T02:32:03;4.50;;;2.08;;
41219;SDS011;26951;47.338;9.196;2023-03-23T02:35:18;2.50;;;1.80;;
41219;SDS011;26951;47.338;9.196;2023-03-23T02:38:11;2.65;;;1.70;;
41219;SDS011;26951;47.338;9.196;2023-03-23T02:41:00;4.35;;;1.80;;
41219;SDS011;26951;47.338;9.196;2023-03-23T02:43:46;2.13;;;1.70;;
41219;SDS011;26951;47.338;9.196;2023-03-23T02:46:33;2.10;;;1.60;;
41219;SDS011;26951;47.338;9.196;2023-03-23T02:49:19;4.05;;;1.70;;
41219;SDS011;26951;47.338;9.196;2023-03-23T02:52:08;2.05;;;1.60;;
41219;SDS011;26951;47.338;9.196;2023-03-23T02:54:59;2.65;;;1.85;;
41219;SDS011;26951;47.338;9.196;2023-03-23T02:57:46;2.75;;;1.90;;
41219;SDS011;26951;47.338;9.196;2023-03-23T03:00:31;3.00;;;1.75;;
41219;SDS011;26951;47.338;9.196;2023-03-23T03:03:16;2.65;;;1.88;;
41219;SDS011;26951;47.338;9.196;2023-03-23T03:09:23;2.50;;;2.30;;
41219;SDS011;26951;47.338;9.196;2023-03-23T03:19:11;2.17;;;1.92;;
41219;SDS011;26951;47.338;9.196;2023-03-23T03:22:08;2.70;;;1.80;;
41219;SDS011;26951;47.338;9.196;2023-03-23T03:24:55;2.17;;;1.98;;
41219;SDS011;26951;47.338;9.196;2023-03-23T03:27:42;2.60;;;2.17;;
41219;SDS011;26951;47.338;9.196;2023-03-23T03:30:30;2.65;;;2.00;;
41219;SDS011;26951;47.338;9.196;2023-03-23T03:33:17;3.03;;;2.40;;
41219;SDS011;26951;47.338;9.196;2023-03-23T03:36:04;2.63;;;1.92;;
41219;SDS011;26951;47.338;9.196;2023-03-23T03:38:52;3.80;;;2.58;;
41219;SDS011;26951;47.338;9.196;2023-03-23T03:41:37;3.23;;;1.77;;
41219;SDS011;26951;47.338;9.196;2023-03-23T03:44:22;2.45;;;1.90;;
41219;SDS011;26951;47.338;9.196;2023-03-23T03:47:06;2.10;;;1.70;;
41219;SDS011;26951;47.338;9.196;2023-03-23T03:49:50;2.58;;;2.00;;
41219;SDS011;26951;47.338;9.196;2023-03-23T03:52:34;3.03;;;2.13;;
41219;SDS011;26951;47.338;9.196;2023-03-23T03:55:20;1.92;;;1.70;;
41219;SDS011;26951;47.338;9.196;2023-03-23T03:58:04;2.35;;;2.05;;
41219;SDS011;26951;47.338;9.196;2023-03-23T04:00:49;3.38;;;2.45;;
41219;SDS011;26951;47.338;9.196;2023-03-23T04:03:33;2.25;;;1.98;;
41219;SDS011;26951;47.338;9.196;2023-03-23T04:06:17;2.35;;;1.90;;
41219;SDS011;26951;47.338;9.196;2023-03-23T04:09:03;2.05;;;1.70;;
41219;SDS011;26951;47.338;9.196;2023-03-23T04:11:49;5.07;;;2.28;;
41219;SDS011;26951;47.338;9.196;2023-03-23T04:14:34;3.38;;;2.75;;
41219;SDS011;26951;47.338;9.196;2023-03-23T04:17:18;3.00;;;2.40;;
41219;SDS011;26951;47.338;9.196;2023-03-23T04:20:04;2.88;;;2.00;;
41219;SDS011;26951;47.338;9.196;2023-03-23T04:22:51;2.30;;;2.10;;
41219;SDS011;26951;47.338;9.196;2023-03-23T04:25:38;3.35;;;2.20;;
41219;SDS011;26951;47.338;9.196;2023-03-23T04:28:25;3.00;;;2.20;;
41219;SDS011;26951;47.338;9.196;2023-03-23T04:31:11;2.30;;;1.90;;
41219;SDS011;26951;47.338;9.196;2023-03-23T04:36:41;2.80;;;2.40;;
41219;SDS011;26951;47.338;9.196;2023-03-23T04:39:25;2.35;;;2.00;;
41219;SDS011;26951;47.338;9.196;2023-03-23T04:42:12;4.40;;;2.38;;
41219;SDS011;26951;47.338;9.196;2023-03-23T04:44:57;3.33;;;2.42;;
41219;SDS011;26951;47.338;9.196;2023-03-23T04:47:42;3.97;;;2.10;;
41219;SDS011;26951;47.338;9.196;2023-03-23T04:50:32;5.72;;;2.75;;
41219;SDS011;26951;47.338;9.196;2023-03-23T04:53:17;4.20;;;2.30;;
41219;SDS011;26951;47.338;9.196;2023-03-23T04:56:01;3.72;;;2.20;;
41219;SDS011;26951;47.338;9.196;2023-03-23T04:58:46;3.05;;;1.90;;
41219;SDS011;26951;47.338;9.196;2023-03-23T05:01:30;4.88;;;2.00;;
41219;SDS011;26951;47.338;9.196;2023-03-23T05:04:15;4.63;;;2.17;;
41219;SDS011;26951;47.338;9.196;2023-03-23T05:07:00;2.55;;;2.20;;
41219;SDS011;26951;47.338;9.196;2023-03-23T05:09:46;3.00;;;2.40;;
41219;SDS011;26951;47.338;9.196;2023-03-23T05:12:31;2.50;;;2.30;;
41219;SDS011;26951;47.338;9.196;2023-03-23T05:15:16;2.90;;;2.33;;
41219;SDS011;26951;47.338;9.196;2023-03-23T05:18:00;4.22;;;2.45;;
41219;SDS011;26951;47.338;9.196;2023-03-23T05:20:44;3.00;;;2.53;;
41219;SDS011;26951;47.338;9.196;2023-03-23T05:23:30;2.40;;;2.10;;
41219;SDS011;26951;47.338;9.196;2023-03-23T05:26:17;3.45;;;2.25;;
41219;SDS011;26951;47.338;9.196;2023-03-23T05:29:01;3.03;;;2.22;;
41219;SDS011;26951;47.338;9.196;2023-03-23T05:31:45;2.78;;;2.20;;
41219;SDS011;26951;47.338;9.196;2023-03-23T05:34:31;3.20;;;1.90;;
41219;SDS011;26951;47.338;9.196;2023-03-23T05:37:16;2.10;;;1.63;;
41219;SDS011;26951;47.338;9.196;2023-03-23T05:40:00;2.35;;;2.10;;
41219;SDS011;26951;47.338;9.196;2023-03-23T05:42:55;2.22;;;1.80;;
41219;SDS011;26951;47.338;9.196;2023-03-23T05:45:42;3.20;;;1.88;;
41219;SDS011;26951;47.338;9.196;2023-03-23T05:48:26;3.30;;;2.28;;
41219;SDS011;26951;47.338;9.196;2023-03-23T05:51:10;2.42;;;1.80;;
41219;SDS011;26951;47.338;9.196;2023-03-23T05:53:55;2.20;;;1.92;;
41219;SDS011;26951;47.338;9.196;2023-03-23T05:56:40;3.85;;;2.13;;
41219;SDS011;26951;47.338;9.196;2023-03-23T05:59:24;3.28;;;1.85;;
41219;SDS011;26951;47.338;9.196;2023-03-23T06:02:08;2.25;;;2.05;;
41219;SDS011;26951;47.338;9.196;2023-03-23T06:04:53;3.47;;;2.17;;
41219;SDS011;26951;47.338;9.196;2023-03-23T06:07:41;3.25;;;1.88;;
41219;SDS011;26951;47.338;9.196;2023-03-23T06:10:26;4.53;;;1.92;;
41219;SDS011;26951;47.338;9.196;2023-03-23T06:13:10;3.05;;;1.88;;
41219;SDS011;26951;47.338;9.196;2023-03-23T06:15:55;1.88;;;1.67;;
41219;SDS011;26951;47.338;9.196;2023-03-23T06:18:42;6.50;;;2.55;;
41219;SDS011;26951;47.338;9.196;2023-03-23T06:21:26;2.90;;;2.28;;
41219;SDS011;26951;47.338;9.196;2023-03-23T06:24:11;4.63;;;2.90;;
41219;SDS011;26951;47.338;9.196;2023-03-23T06:26:55;3.67;;;2.22;;
41219;SDS011;26951;47.338;9.196;2023-03-23T06:29:39;4.20;;;2.33;;
41219;SDS011;26951;47.338;9.196;2023-03-23T06:32:24;2.20;;;1.85;;
41219;SDS011;26951;47.338;9.196;2023-03-23T06:35:12;2.90;;;2.05;;
41219;SDS011;26951;47.338;9.196;2023-03-23T06:37:57;2.15;;;1.85;;
41219;SDS011;26951;47.338;9.196;2023-03-23T06:40:45;2.85;;;2.55;;
41219;SDS011;26951;47.338;9.196;2023-03-23T06:43:30;5.95;;;2.20;;
41219;SDS011;26951;47.338;9.196;2023-03-23T06:46:14;3.85;;;2.15;;
41219;SDS011;26951;47.338;9.196;2023-03-23T06:48:59;2.35;;;1.88;;
41219;SDS011;26951;47.338;9.196;2023-03-23T06:51:43;2.45;;;1.85;;
41219;SDS011;26951;47.338;9.196;2023-03-23T06:54:27;2.13;;;1.88;;
41219;SDS011;26951;47.338;9.196;2023-03-23T06:57:11;2.92;;;2.17;;
41219;SDS011;26951;47.338;9.196;2023-03-23T06:59:56;3.60;;;2.05;;
41219;SDS011;26951;47.338;9.196;2023-03-23T07:02:40;3.45;;;2.28;;
41219;SDS011;26951;47.338;9.196;2023-03-23T07:05:25;2.50;;;2.10;;
41219;SDS011;26951;47.338;9.196;2023-03-23T07:08:09;2.25;;;2.05;;
41219;SDS011;26951;47.338;9.196;2023-03-23T07:10:54;2.95;;;2.40;;
41219;SDS011;26951;47.338;9.196;2023-03-23T07:13:38;2.63;;;1.75;;
41219;SDS011;26951;47.338;9.196;2023-03-23T07:16:23;7.43;;;2.08;;
41219;SDS011;26951;47.338;9.196;2023-03-23T07:19:08;2.53;;;2.15;;
41219;SDS011;26951;47.338;9.196;2023-03-23T07:21:52;2.28;;;1.90;;
41219;SDS011;26951;47.338;9.196;2023-03-23T07:24:36;2.13;;;1.88;;
41219;SDS011;26951;47.338;9.196;2023-03-23T07:27:20;4.45;;;2.42;;
41219;SDS011;26951;47.338;9.196;2023-03-23T07:30:04;3.80;;;2.17;;
41219;SDS011;26951;47.338;9.196;2023-03-23T07:32:49;2.83;;;2.00;;
41219;SDS011;26951;47.338;9.196;2023-03-23T07:35:34;3.03;;;2.57;;
41219;SDS011;26951;47.338;9.196;2023-03-23T07:38:19;3.47;;;2.17;;
41219;SDS011;26951;47.338;9.196;2023-03-23T07:41:04;4.70;;;2.55;;
41219;SDS011;26951;47.338;9.196;2023-03-23T07:43:49;3.30;;;2.42;;
41219;SDS011;26951;47.338;9.196;2023-03-23T07:46:33;3.90;;;2.87;;
41219;SDS011;26951;47.338;9.196;2023-03-23T07:49:18;3.65;;;3.10;;
41219;SDS011;26951;47.338;9.196;2023-03-23T07:52:02;3.90;;;3.00;;
41219;SDS011;26951;47.338;9.196;2023-03-23T07:54:46;4.05;;;3.10;;
41219;SDS011;26951;47.338;9.196;2023-03-23T07:57:31;3.13;;;2.80;;
41219;SDS011;26951;47.338;9.196;2023-03-23T08:00:16;5.30;;;2.90;;
41219;SDS011;26951;47.338;9.196;2023-03-23T08:03:06;3.05;;;2.75;;
41219;SDS011;26951;47.338;9.196;2023-03-23T08:05:50;4.70;;;3.20;;
41219;SDS011;26951;47.338;9.196;2023-03-23T08:08:35;3.45;;;2.72;;
41219;SDS011;26951;47.338;9.196;2023-03-23T08:11:20;3.55;;;2.80;;
41219;SDS011;26951;47.338;9.196;2023-03-23T08:14:04;6.57;;;3.47;;
41219;SDS011;26951;47.338;9.196;2023-03-23T08:16:49;2.83;;;2.55;;
41219;SDS011;26951;47.338;9.196;2023-03-23T08:19:33;3.28;;;2.83;;
41219;SDS011;26951;47.338;9.196;2023-03-23T08:22:20;5.13;;;2.50;;
41219;SDS011;26951;47.338;9.196;2023-03-23T08:25:05;3.55;;;2.70;;
41219;SDS011;26951;47.338;9.196;2023-03-23T08:27:50;6.43;;;3.60;;
41219;SDS011;26951;47.338;9.196;2023-03-23T08:30:35;3.97;;;2.57;;
41219;SDS011;26951;47.338;9.196;2023-03-23T08:33:22;5.07;;;3.00;;
41219;SDS011;26951;47.338;9.196;2023-03-23T08:36:06;4.47;;;3.00;;
41219;SDS011;26951;47.338;9.196;2023-03-23T08:38:51;5.13;;;3.03;;
41219;SDS011;26951;47.338;9.196;2023-03-23T08:41:36;3.85;;;3.20;;
41219;SDS011;26951;47.338;9.196;2023-03-23T08:44:20;3.78;;;3.22;;
41219;SDS011;26951;47.338;9.196;2023-03-23T08:47:04;3.63;;;3.00;;
41219;SDS011;26951;47.338;9.196;2023-03-23T08:49:49;3.33;;;2.78;;
41219;SDS011;26951;47.338;9.196;2023-03-23T08:52:36;4.05;;;3.08;;
41219;SDS011;26951;47.338;9.196;2023-03-23T08:55:21;3.10;;;2.70;;
41219;SDS011;26951;47.338;9.196;2023-03-23T08:58:05;6.75;;;3.60;;
41219;SDS011;26951;47.338;9.196;2023-03-23T09:00:50;9.47;;;4.87;;
41219;SDS011;26951;47.338;9.196;2023-03-23T09:03:34;6.68;;;4.40;;
41219;SDS011;26951;47.338;9.196;2023-03-23T09:06:19;4.40;;;3.33;;
41219;SDS011;26951;47.338;9.196;2023-03-23T09:09:03;3.22;;;2.90;;
41219;SDS011;26951;47.338;9.196;2023-03-23T09:11:50;4.20;;;3.30;;
41219;SDS011;26951;47.338;9.196;2023-03-23T09:14:37;3.85;;;3.38;;
41219;SDS011;26951;47.338;9.196;2023-03-23T09:17:21;6.72;;;3.90;;
41219;SDS011;26951;47.338;9.196;2023-03-23T09:20:06;4.50;;;3.30;;
41219;SDS011;26951;47.338;9.196;2023-03-23T09:22:56;4.60;;;3.10;;
41219;SDS011;26951;47.338;9.196;2023-03-23T09:25:41;4.82;;;3.13;;
41219;SDS011;26951;47.338;9.196;2023-03-23T09:28:25;5.78;;;4.13;;
41219;SDS011;26951;47.338;9.196;2023-03-23T09:31:09;7.93;;;5.25;;
41219;SDS011;26951;47.338;9.196;2023-03-23T09:33:54;6.20;;;4.55;;
41219;SDS011;26951;47.338;9.196;2023-03-23T09:36:43;5.10;;;4.20;;
41219;SDS011;26951;47.338;9.196;2023-03-23T09:39:27;7.00;;;4.70;;
41219;SDS011;26951;47.338;9.196;2023-03-23T09:50:48;5.65;;;5.05;;
41219;SDS011;26951;47.338;9.196;2023-03-23T09:53:41;6.50;;;4.90;;
41219;SDS011;26951;47.338;9.196;2023-03-23T09:56:29;5.35;;;4.55;;
41219;SDS011;26951;47.338;9.196;2023-03-23T10:05:26;9.82;;;5.30;;
41219;SDS011;26951;47.338;9.196;2023-03-23T10:08:17;11.88;;;4.97;;
41219;SDS011;26951;47.338;9.196;2023-03-23T10:13:59;6.90;;;3.63;;
41219;SDS011;26951;47.338;9.196;2023-03-23T10:23:13;3.30;;;3.00;;
41219;SDS011;26951;47.338;9.196;2023-03-23T10:26:12;2.55;;;2.35;;
41219;SDS011;26951;47.338;9.196;2023-03-23T10:32:13;3.33;;;2.63;;
41219;SDS011;26951;47.338;9.196;2023-03-23T10:35:01;2.20;;;2.00;;
41219;SDS011;26951;47.338;9.196;2023-03-23T10:37:52;4.00;;;2.60;;
41219;SDS011;26951;47.338;9.196;2023-03-23T10:40:53;3.05;;;2.20;;
41219;SDS011;26951;47.338;9.196;2023-03-23T10:43:40;2.33;;;2.13;;
41219;SDS011;26951;47.338;9.196;2023-03-23T10:46:27;2.78;;;2.03;;
41219;SDS011;26951;47.338;9.196;2023-03-23T10:52:25;3.03;;;2.22;;
41219;SDS011;26951;47.338;9.196;2023-03-23T10:55:21;3.85;;;2.17;;
41219;SDS011;26951;47.338;9.196;2023-03-23T10:58:09;3.05;;;2.13;;
41219;SDS011;26951;47.338;9.196;2023-03-23T11:01:10;3.05;;;2.20;;
41219;SDS011;26951;47.338;9.196;2023-03-23T11:03:56;2.40;;;2.20;;
41219;SDS011;26951;47.338;9.196;2023-03-23T11:06:43;6.80;;;2.13;;
41219;SDS011;26951;47.338;9.196;2023-03-23T11:09:34;2.63;;;2.30;;
41219;SDS011;26951;47.338;9.196;2023-03-23T11:12:34;3.42;;;2.10;;
41219;SDS011;26951;47.338;9.196;2023-03-23T11:15:26;4.50;;;2.67;;
41219;SDS011;26951;47.338;9.196;2023-03-23T11:18:18;4.75;;;2.00;;
41219;SDS011;26951;47.338;9.196;2023-03-23T11:21:04;3.05;;;2.20;;
41219;SDS011;26951;47.338;9.196;2023-03-23T11:23:54;1.90;;;1.63;;
41219;SDS011;26951;47.338;9.196;2023-03-23T11:26:43;2.33;;;1.88;;
41219;SDS011;26951;47.338;9.196;2023-03-23T11:29:29;1.92;;;1.65;;
41219;SDS011;26951;47.338;9.196;2023-03-23T11:32:14;2.35;;;1.80;;
41219;SDS011;26951;47.338;9.196;2023-03-23T11:35:03;3.42;;;1.77;;
41219;SDS011;26951;47.338;9.196;2023-03-23T11:37:53;2.03;;;1.65;;
41219;SDS011;26951;47.338;9.196;2023-03-23T11:40:44;2.28;;;1.67;;
41219;SDS011;26951;47.338;9.196;2023-03-23T11:43:34;2.25;;;1.77;;
41219;SDS011;26951;47.338;9.196;2023-03-23T11:49:15;2.60;;;2.03;;
41219;SDS011;26951;47.338;9.196;2023-03-23T11:52:11;1.63;;;1.48;;
41219;SDS011;26951;47.338;9.196;2023-03-23T11:55:10;3.72;;;1.70;;
41219;SDS011;26951;47.338;9.196;2023-03-23T11:58:07;2.72;;;1.42;;
41219;SDS011;26951;47.338;9.196;2023-03-23T12:00:56;2.50;;;1.80;;
41219;SDS011;26951;47.338;9.196;2023-03-23T12:03:55;2.70;;;1.80;;
41219;SDS011;26951;47.338;9.196;2023-03-23T12:10:26;2.63;;;1.90;;
41219;SDS011;26951;47.338;9.196;2023-03-23T12:25:36;2.13;;;1.60;;
41219;SDS011;26951;47.338;9.196;2023-03-23T12:32:19;2.78;;;1.60;;
41219;SDS011;26951;47.338;9.196;2023-03-23T12:36:06;2.38;;;1.70;;
41219;SDS011;26951;47.338;9.196;2023-03-23T12:38:44;2.28;;;1.65;;
41219;SDS011;26951;47.338;9.196;2023-03-23T12:41:47;2.00;;;1.60;;
41219;SDS011;26951;47.338;9.196;2023-03-23T12:50:43;2.07;;;1.50;;
41219;SDS011;26951;47.338;9.196;2023-03-23T12:53:50;4.55;;;1.88;;
41219;SDS011;26951;47.338;9.196;2023-03-23T13:00:02;3.08;;;1.75;;
41219;SDS011;26951;47.338;9.196;2023-03-23T13:03:01;1.67;;;1.40;;
41219;SDS011;26951;47.338;9.196;2023-03-23T13:06:03;1.38;;;1.27;;
41219;SDS011;26951;47.338;9.196;2023-03-23T13:11:43;1.95;;;1.58;;
41219;SDS011;26951;47.338;9.196;2023-03-23T13:14:42;3.28;;;2.22;;
41219;SDS011;26951;47.338;9.196;2023-03-23T13:17:38;2.70;;;1.70;;
41219;SDS011;26951;47.338;9.196;2023-03-23T13:23:25;2.13;;;1.50;;
41219;SDS011;26951;47.338;9.196;2023-03-23T13:26:20;6.03;;;1.90;;
41219;SDS011;26951;47.338;9.196;2023-03-23T13:29:08;2.28;;;1.80;;
41219;SDS011;26951;47.338;9.196;2023-03-23T13:32:04;2.30;;;1.67;;
41219;SDS011;26951;47.338;9.196;2023-03-23T13:34:54;5.18;;;2.00;;
41219;SDS011;26951;47.338;9.196;2023-03-23T13:37:43;1.90;;;1.50;;
41219;SDS011;26951;47.338;9.196;2023-03-23T13:40:30;6.60;;;1.83;;
41219;SDS011;26951;47.338;9.196;2023-03-23T13:43:24;2.90;;;2.03;;
41219;SDS011;26951;47.338;9.196;2023-03-23T13:49:05;2.30;;;1.63;;
41219;SDS011;26951;47.338;9.196;2023-03-23T14:00:48;3.33;;;2.75;;
41219;SDS011;26951;47.338;9.196;2023-03-23T14:03:53;3.15;;;1.80;;
41219;SDS011;26951;47.338;9.196;2023-03-23T14:06:39;2.95;;;1.90;;
41219;SDS011;26951;47.338;9.196;2023-03-23T14:09:31;3.35;;;2.08;;
41219;SDS011;26951;47.338;9.196;2023-03-23T14:12:23;2.42;;;1.90;;
41219;SDS011;26951;47.338;9.196;2023-03-23T14:15:11;3.08;;;2.00;;
41219;SDS011;26951;47.338;9.196;2023-03-23T14:17:58;3.85;;;2.72;;
41219;SDS011;26951;47.338;9.196;2023-03-23T14:20:46;2.70;;;1.90;;
41219;SDS011;26951;47.338;9.196;2023-03-23T14:26:19;3.05;;;2.10;;
41219;SDS011;26951;47.338;9.196;2023-03-23T14:29:04;2.08;;;1.70;;
41219;SDS011;26951;47.338;9.196;2023-03-23T14:31:55;3.25;;;2.10;;
41219;SDS011;26951;47.338;9.196;2023-03-23T14:34:40;2.63;;;2.40;;
41219;SDS011;26951;47.338;9.196;2023-03-23T14:37:25;2.70;;;2.33;;
41219;SDS011;26951;47.338;9.196;2023-03-23T14:40:17;2.63;;;2.40;;
41219;SDS011;26951;47.338;9.196;2023-03-23T14:43:02;3.90;;;2.33;;
41219;SDS011;26951;47.338;9.196;2023-03-23T14:45:47;2.57;;;2.00;;
41219;SDS011;26951;47.338;9.196;2023-03-23T14:48:38;3.25;;;2.38;;
41219;SDS011;26951;47.338;9.196;2023-03-23T14:51:23;2.70;;;2.10;;
41219;SDS011;26951;47.338;9.196;2023-03-23T14:54:07;2.67;;;2.30;;
41219;SDS011;26951;47.338;9.196;2023-03-23T14:56:52;5.00;;;3.03;;
41219;SDS011;26951;47.338;9.196;2023-03-23T14:59:39;3.70;;;2.80;;
41219;SDS011;26951;47.338;9.196;2023-03-23T15:02:37;5.90;;;2.70;;
41219;SDS011;26951;47.338;9.196;2023-03-23T15:05:28;1.88;;;1.75;;
41219;SDS011;26951;47.338;9.196;2023-03-23T15:08:18;2.42;;;1.90;;
41219;SDS011;26951;47.338;9.196;2023-03-23T15:11:05;3.05;;;2.60;;
41219;SDS011;26951;47.338;9.196;2023-03-23T15:14:02;2.30;;;2.10;;
41219;SDS011;26951;47.338;9.196;2023-03-23T15:17:09;3.10;;;2.50;;
41219;SDS011;26951;47.338;9.196;2023-03-23T15:20:09;3.33;;;2.30;;
41219;SDS011;26951;47.338;9.196;2023-03-23T15:23:05;3.22;;;2.55;;
41219;SDS011;26951;47.338;9.196;2023-03-23T15:25:51;2.40;;;2.15;;
41219;SDS011;26951;47.338;9.196;2023-03-23T15:28:39;3.38;;;2.38;;
41219;SDS011;26951;47.338;9.196;2023-03-23T15:31:24;5.88;;;2.60;;
41219;SDS011;26951;47.338;9.196;2023-03-23T15:34:11;3.47;;;2.30;;
41219;SDS011;26951;47.338;9.196;2023-03-23T15:37:02;2.70;;;2.40;;
41219;SDS011;26951;47.338;9.196;2023-03-23T15:39:48;2.75;;;2.20;;
41219;SDS011;26951;47.338;9.196;2023-03-23T15:42:34;3.33;;;2.58;;
41219;SDS011;26951;47.338;9.196;2023-03-23T15:48:11;3.67;;;2.53;;
41219;SDS011;26951;47.338;9.196;2023-03-23T15:50:56;2.65;;;2.08;;
41219;SDS011;26951;47.338;9.196;2023-03-23T15:53:41;5.00;;;2.83;;
41219;SDS011;26951;47.338;9.196;2023-03-23T15:56:26;3.38;;;2.42;;
41219;SDS011;26951;47.338;9.196;2023-03-23T15:59:10;3.70;;;2.75;;
41219;SDS011;26951;47.338;9.196;2023-03-23T16:01:55;3.28;;;2.83;;
41219;SDS011;26951;47.338;9.196;2023-03-23T16:04:40;3.25;;;2.83;;
41219;SDS011;26951;47.338;9.196;2023-03-23T16:07:24;3.63;;;2.70;;
41219;SDS011;26951;47.338;9.196;2023-03-23T16:10:16;3.22;;;2.80;;
41219;SDS011;26951;47.338;9.196;2023-03-23T16:13:02;4.00;;;2.90;;
41219;SDS011;26951;47.338;9.196;2023-03-23T16:15:48;3.33;;;2.80;;
41219;SDS011;26951;47.338;9.196;2023-03-23T16:18:32;4.25;;;3.00;;
41219;SDS011;26951;47.338;9.196;2023-03-23T16:21:16;3.42;;;2.70;;
41219;SDS011;26951;47.338;9.196;2023-03-23T16:24:00;3.83;;;3.42;;
41219;SDS011;26951;47.338;9.196;2023-03-23T16:26:45;3.33;;;2.80;;
41219;SDS011;26951;47.338;9.196;2023-03-23T16:29:29;5.18;;;3.33;;
41219;SDS011;26951;47.338;9.196;2023-03-23T16:32:14;5.07;;;4.30;;
41219;SDS011;26951;47.338;9.196;2023-03-23T16:34:58;3.50;;;3.20;;
41219;SDS011;26951;47.338;9.196;2023-03-23T16:37:46;5.18;;;3.22;;
41219;SDS011;26951;47.338;9.196;2023-03-23T16:40:32;4.03;;;3.25;;
41219;SDS011;26951;47.338;9.196;2023-03-23T16:43:16;4.47;;;3.17;;
41219;SDS011;26951;47.338;9.196;2023-03-23T16:46:01;5.88;;;3.45;;
41219;SDS011;26951;47.338;9.196;2023-03-23T16:48:45;4.38;;;3.63;;
41219;SDS011;26951;47.338;9.196;2023-03-23T16:51:29;2.75;;;2.55;;
41219;SDS011;26951;47.338;9.196;2023-03-23T16:54:14;3.77;;;2.87;;
41219;SDS011;26951;47.338;9.196;2023-03-23T16:56:58;3.33;;;2.60;;
41219;SDS011;26951;47.338;9.196;2023-03-23T16:59:43;5.25;;;2.83;;
41219;SDS011;26951;47.338;9.196;2023-03-23T17:02:27;4.68;;;3.33;;
41219;SDS011;26951;47.338;9.196;2023-03-23T17:05:11;3.05;;;2.75;;
41219;SDS011;26951;47.338;9.196;2023-03-23T17:07:56;3.10;;;2.80;;
41219;SDS011;26951;47.338;9.196;2023-03-23T17:10:41;4.45;;;2.90;;
41219;SDS011;26951;47.338;9.196;2023-03-23T17:13:26;3.80;;;2.78;;
41219;SDS011;26951;47.338;9.196;2023-03-23T17:16:10;3.83;;;2.58;;
41219;SDS011;26951;47.338;9.196;2023-03-23T17:18:55;3.95;;;2.70;;
41219;SDS011;26951;47.338;9.196;2023-03-23T17:21:39;6.47;;;2.83;;
41219;SDS011;26951;47.338;9.196;2023-03-23T17:24:24;3.85;;;2.90;;
41219;SDS011;26951;47.338;9.196;2023-03-23T17:27:09;3.75;;;2.47;;
41219;SDS011;26951;47.338;9.196;2023-03-23T17:29:54;5.20;;;2.88;;
41219;SDS011;26951;47.338;9.196;2023-03-23T17:32:39;3.67;;;2.80;;
41219;SDS011;26951;47.338;9.196;2023-03-23T17:35:23;3.35;;;2.70;;
41219;SDS011;26951;47.338;9.196;2023-03-23T17:38:07;3.97;;;3.00;;
41219;SDS011;26951;47.338;9.196;2023-03-23T17:40:56;4.05;;;2.95;;
41219;SDS011;26951;47.338;9.196;2023-03-23T17:43:41;3.90;;;3.13;;
41219;SDS011;26951;47.338;9.196;2023-03-23T17:46:25;3.85;;;3.25;;
41219;SDS011;26951;47.338;9.196;2023-03-23T17:49:10;5.20;;;3.38;;
41219;SDS011;26951;47.338;9.196;2023-03-23T17:51:54;4.55;;;3.15;;
41219;SDS011;26951;47.338;9.196;2023-03-23T17:54:39;3.45;;;2.80;;
41219;SDS011;26951;47.338;9.196;2023-03-23T17:57:24;5.20;;;3.80;;
41219;SDS011;26951;47.338;9.196;2023-03-23T18:00:08;4.40;;;3.85;;
41219;SDS011;26951;47.338;9.196;2023-03-23T18:02:53;4.53;;;3.15;;
41219;SDS011;26951;47.338;9.196;2023-03-23T18:05:38;3.92;;;2.55;;
41219;SDS011;26951;47.338;9.196;2023-03-23T18:08:23;3.70;;;3.10;;
41219;SDS011;26951;47.338;9.196;2023-03-23T18:11:08;4.40;;;3.53;;
41219;SDS011;26951;47.338;9.196;2023-03-23T18:13:52;4.43;;;3.08;;
41219;SDS011;26951;47.338;9.196;2023-03-23T18:16:36;4.43;;;3.03;;
41219;SDS011;26951;47.338;9.196;2023-03-23T18:19:20;4.90;;;3.45;;
41219;SDS011;26951;47.338;9.196;2023-03-23T18:22:05;5.85;;;3.33;;
41219;SDS011;26951;47.338;9.196;2023-03-23T18:28:30;4.55;;;3.22;;
41219;SDS011;26951;47.338;9.196;2023-03-23T18:33:48;4.68;;;3.10;;
41219;SDS011;26951;47.338;9.196;2023-03-23T18:36:33;4.15;;;3.00;;
41219;SDS011;26951;47.338;9.196;2023-03-23T18:39:17;8.57;;;4.05;;
41219;SDS011;26951;47.338;9.196;2023-03-23T18:42:02;4.40;;;3.03;;
41219;SDS011;26951;47.338;9.196;2023-03-23T18:44:46;4.03;;;3.22;;
41219;SDS011;26951;47.338;9.196;2023-03-23T18:47:31;3.70;;;3.30;;